Nocc Caspian — V7YT4 — position and weather

sailwx.info

Track history (hours):
 
Tides and Currents Weather Stations Pressure Air Temp Water Temp Dewpoint Dewpoint Depression Visibility Wind Speed Wind Dir Waves Ship Positions

Nocc Caspian

Last reported at 2017-Oct-22 01:53 UTC. Time now 2017-Nov-21 12:17 UTC.
Position N 01°22' E 103°17'.
Warning: this ship's position is 30 days out of date.

Length 184 m; draft 7.7 m.

Type: Cargo ship. MMSI: 538004728.

Date/timePositionNaut miles runAvg speedWind from/ knotsBaromVisibWave heightAir tempDewpointWater temp
2017-Oct-22 01:53N 01°22' E 103°17'511.7
2017-Oct-22 01:29N 01°18' E 103°21'612.1
2017-Oct-22 00:59N 01°14' E 103°25'712.6
2017-Oct-22 00:27N 01°13' E 103°32'613.1
2017-Oct-22 00:00N 01°11' E 103°38'612.5
2017-Oct-21 23:30N 01°09' E 103°43'611.3
2017-Oct-21 23:00N 01°11' E 103°48'611.6
2017-Oct-21 22:30N 01°13' E 103°54'611.4
2017-Oct-21 22:00N 01°15' E 103°59'2 0.7
2017-Oct-21 18:52N 01°17' E 103°60'0 0.0
2017-Oct-21 13:43N 01°18' E 103°60'0 0.3
2017-Oct-21 12:46N 01°18' E 103°60'0 0.0
2017-Oct-21 12:31N 01°18' E 103°60'0 0.0
2017-Oct-21 11:51N 01°18' E 103°60'0 0.0
2017-Oct-21 11:30N 01°18' E 103°60'1 1.2
2017-Oct-21 10:59N 01°17' E 104°00'1 2.0
2017-Oct-21 10:29N 01°16' E 104°01'  
Track history (hours):
 
Tides and Currents Weather Stations Pressure Air Temp Water Temp Dewpoint Dewpoint Depression Visibility Wind Speed Wind Dir Waves Ship Positions

Nocc Caspian

Last reported at 2017-Oct-22 01:53 UTC. Time now 2017-Nov-21 12:17 UTC.
Position N 01°22' E 103°17'.
Warning: this ship's position is 30 days out of date.

Length 184 m; draft 7.7 m.

Type: Cargo ship. MMSI: 538004728.

Date/timePositionNaut miles runAvg speedWind from/ knotsBaromVisibWave heightAir tempDewpointWater temp
2017-Oct-22 01:53N 01°22' E 103°17'511.7
2017-Oct-22 01:29N 01°18' E 103°21'612.1
2017-Oct-22 00:59N 01°14' E 103°25'712.6
2017-Oct-22 00:27N 01°13' E 103°32'613.1
2017-Oct-22 00:00N 01°11' E 103°38'612.5
2017-Oct-21 23:30N 01°09' E 103°43'611.3
2017-Oct-21 23:00N 01°11' E 103°48'611.6
2017-Oct-21 22:30N 01°13' E 103°54'611.4
2017-Oct-21 22:00N 01°15' E 103°59'2 0.7
2017-Oct-21 18:52N 01°17' E 103°60'0 0.0
2017-Oct-21 13:43N 01°18' E 103°60'0 0.3
2017-Oct-21 12:46N 01°18' E 103°60'0 0.0
2017-Oct-21 12:31N 01°18' E 103°60'0 0.0
2017-Oct-21 11:51N 01°18' E 103°60'0 0.0
2017-Oct-21 11:30N 01°18' E 103°60'1 1.2
2017-Oct-21 10:59N 01°17' E 104°00'1 2.0
2017-Oct-21 10:29N 01°16' E 104°01'  

Dump ship's entire track history